Terminal Aerodrome Forecast
Issued by NWS Portland, ME

Home | Current Version | Previous Version | Text Only | Print | Product List | Glossary On
Versions: 1 2 3 4 5 6 7 8 9 10 11 12 13 14 15 16 17 18 19 20 21 22 23
000
FTUS41 KGYX 301722
TAFCON
TAF
KCON 301722Z 3018/3118 32012KT P6SM FEW250
     FM310000 34004KT P6SM SCT250
     FM311300 05004KT P6SM OVC025
     FM311500 07005KT P6SM OVC015 PROB30 3115/3118 2SM -SNRA OVC007=

USA.gov is the U.S. government's official web portal to all federal, state and local government web resources and services.